University, New York
Current Conditions -  °F | °C
As of 10:01 AM on Thursday 23 Oct 2014 (Local Time) from KSYR Reporting Station
Overcast Overcast  
Wind Chill: 42°   Ceiling: 9500
Heat Index: 47°   Visibility: 10mi
Dew Point: 38°   Wind: 10mph
Humidity: 71%   Direction: 310°NW
Pressure: 29.99"   Gusts: 20mph
Location:  43.048°N, 76.1477°W
Report Text: KSYR 231401Z 31009G17KT 10SM FEW028 OVC095 08/03 A2999 RMK AO2 T00830033
Loading
Personal Weather Stations






























Interactive Weather Map
Tropical Storm Tracking
New forecast layout! Learn more

10-Day Weather Forecast

Advertisements
Track Severe Weather on mobile